Crocus Hill, Anguilla
Current Conditions -  °F | °C
As of 2:00 AM on Wednesday 26 Nov 2014 (Local Time) from TNCM Reporting Station
Few Clouds Few Clouds  
Wind Chill: 81°   Ceiling: Unl
Heat Index: 85°   Visibility: 6mi
Dew Point: 72°   Wind: 16mph
Humidity: 74%   Direction: 80°E
Pressure: 29.94"   Gusts: NA
Location:  18.25°N, 63.08°W
Report Text: TNCM 260600Z 08014KT 9999 FEW020 27/22 Q1014 A2995
Loading
Personal Weather Stations






























Interactive Weather Map New forecast layout! Learn more

10-Day Weather Forecast

Advertisements
Track Severe Weather on mobile